Terminal Aerodrome Forecast
Issued by NWS

Home | Current Version | Previous Version | Text Only | Print | Product List | Glossary On
Versions: 1 2 3 4 5 6 7 8 9 10 11 12 13 14 15
000
FTUS45 KSLC 301948 AAA
TAFENV
TAF AMD
KENV 301948Z 3020/3118 10007KT P6SM VCSH BKN020 OVC050
     FM302100 33020G30KT P6SM -RA FEW030 OVC050
     FM310100 33022G32KT P6SM VCSH OVC060
      AMD LTD TO CLD VIS AND WIND=

USA.gov is the U.S. government's official web portal to all federal, state and local government web resources and services.